createdAt,value
2017-05-23T00:00:08.597Z,80.15
2017-05-23T00:01:09.300Z,80.62
2017-05-23T00:02:10.249Z,80.62
2017-05-23T00:03:10.953Z,80.81
2017-05-23T00:04:11.656Z,80.62
2017-05-23T00:05:12.348Z,80.62
2017-05-23T00:06:13.050Z,80.81
2017-05-23T00:07:14.001Z,80.62
2017-05-23T00:08:14.698Z,80.72
2017-05-23T00:09:15.399Z,80.43
2017-05-23T00:10:16.099Z,80.62
2017-05-23T00:11:16.798Z,80.72
2017-05-23T00:12:17.749Z,81.10
2017-05-23T00:13:18.448Z,80.91
2017-05-23T00:14:19.146Z,81.01
2017-05-23T00:15:19.845Z,81.38
2017-05-23T00:16:20.543Z,81.10
2017-05-23T00:17:21.543Z,81.10
2017-05-23T00:18:22.242Z,81.77
2017-05-23T00:19:22.943Z,81.38
2017-05-23T00:20:23.646Z,81.96
2017-05-23T00:21:24.346Z,81.67
2017-05-23T00:22:25.297Z,81.48
2017-05-23T00:23:25.996Z,81.77
2017-05-23T00:24:26.698Z,81.35
2017-05-23T00:25:27.399Z,81.73
2017-05-23T00:26:28.096Z,81.92
2017-05-23T00:27:29.048Z,81.82
2017-05-23T00:28:29.750Z,81.92
2017-05-23T00:29:30.446Z,81.73
2017-05-23T00:30:31.146Z,82.40
2017-05-23T00:31:31.854Z,82.20
2017-05-23T00:32:32.801Z,82.40
2017-05-23T00:33:33.500Z,81.82
2017-05-23T00:34:34.201Z,82.30
2017-05-23T00:35:34.903Z,82.59
2017-05-23T00:36:35.604Z,82.40
2017-05-23T00:37:36.555Z,82.78
2017-05-23T00:38:37.259Z,82.68
2017-05-23T00:39:37.961Z,82.59
2017-05-23T00:40:38.662Z,82.59
2017-05-23T00:41:39.599Z,83.25
2017-05-23T00:42:40.497Z,82.97
2017-05-23T00:43:41.202Z,83.25
2017-05-23T00:44:41.906Z,83.25
2017-05-23T00:45:42.611Z,83.25
2017-05-23T00:46:43.315Z,83.06
2017-05-23T00:47:44.266Z,83.06
2017-05-23T00:48:44.967Z,83.06
2017-05-23T00:49:45.671Z,82.87
2017-05-23T00:50:46.373Z,83.35
2017-05-23T00:51:47.073Z,83.25
2017-05-23T00:52:48.025Z,83.06
2017-05-23T00:53:48.724Z,83.06
2017-05-23T00:54:49.421Z,83.16
2017-05-23T00:55:50.120Z,83.35
2017-05-23T00:56:50.827Z,83.31
2017-05-23T00:57:51.826Z,83.31
2017-05-23T00:58:52.525Z,83.50
2017-05-23T00:59:53.222Z,83.44
2017-05-23T01:00:53.923Z,83.69
2017-05-23T01:01:54.624Z,83.69
2017-05-23T01:02:55.324Z,83.97
2017-05-23T01:03:56.019Z,83.88
2017-05-23T01:04:56.717Z,83.69
2017-05-23T01:05:57.416Z,83.97
2017-05-23T01:06:58.115Z,83.59
2017-05-23T01:07:59.061Z,83.40
2017-05-23T01:08:59.765Z,83.88
2017-05-23T01:10:00.466Z,83.97
2017-05-23T01:11:01.161Z,84.36
2017-05-23T01:12:01.858Z,84.26
2017-05-23T01:13:02.871Z,84.16
2017-05-23T01:14:03.573Z,84.45
2017-05-23T01:15:04.276Z,84.16
2017-05-23T01:16:04.976Z,84.36
2017-05-23T01:17:05.673Z,84.55
2017-05-23T01:18:06.573Z,84.16
2017-05-23T01:19:07.272Z,84.26
2017-05-23T01:20:07.972Z,84.36
2017-05-23T01:21:08.675Z,84.55
2017-05-23T01:22:09.376Z,84.16
2017-05-23T01:23:10.325Z,84.64
2017-05-23T01:24:11.024Z,84.16
2017-05-23T01:25:11.723Z,84.92
2017-05-23T01:26:12.420Z,84.92
2017-05-23T01:27:13.120Z,84.92
2017-05-23T01:28:14.069Z,84.92
2017-05-23T01:29:14.773Z,84.92
2017-05-23T01:30:15.472Z,85.02
2017-05-23T01:31:16.169Z,84.83
2017-05-23T01:32:16.868Z,85.02
2017-05-23T01:33:17.768Z,85.60
2017-05-23T01:34:18.472Z,85.78
2017-05-23T01:35:19.174Z,85.60
2017-05-23T01:36:19.873Z,85.41
2017-05-23T01:37:20.574Z,85.50
2017-05-23T01:38:21.473Z,85.60
2017-05-23T01:39:22.169Z,85.50
2017-05-23T01:40:22.872Z,85.69
2017-05-23T01:41:23.581Z,85.88
2017-05-23T01:42:24.280Z,85.97
2017-05-23T01:43:25.177Z,86.16
2017-05-23T01:44:25.874Z,85.88
2017-05-23T01:45:26.575Z,86.22
2017-05-23T01:46:27.271Z,86.26
2017-05-23T01:47:27.970Z,86.26
2017-05-23T01:48:28.918Z,86.22
2017-05-23T01:49:29.609Z,86.22
2017-05-23T01:50:30.309Z,86.03
2017-05-23T01:51:31.007Z,86.22
2017-05-23T01:52:31.709Z,86.41
2017-05-23T01:53:32.659Z,86.69
2017-05-23T01:54:33.360Z,86.88
2017-05-23T01:55:34.060Z,86.88
2017-05-23T01:56:34.769Z,86.88
2017-05-23T01:57:35.383Z,87.17
2017-05-23T01:58:36.414Z,86.79
2017-05-23T01:59:37.115Z,86.88
2017-05-23T02:00:37.826Z,86.88
2017-05-23T02:01:38.522Z,86.41
2017-05-23T02:02:39.221Z,86.60
2017-05-23T02:03:40.169Z,86.98
2017-05-23T02:04:40.866Z,86.69
2017-05-23T02:05:41.561Z,86.55
2017-05-23T02:06:42.259Z,86.60
2017-05-23T02:07:42.955Z,85.93
2017-05-23T02:08:43.901Z,86.51
2017-05-23T02:09:44.599Z,86.03
2017-05-23T02:10:45.295Z,86.03
2017-05-23T02:11:45.991Z,86.60
2017-05-23T02:12:46.692Z,86.60
2017-05-23T02:13:47.592Z,86.41
2017-05-23T02:14:48.289Z,86.22
2017-05-23T02:15:48.994Z,86.60
2017-05-23T02:16:49.692Z,86.03
2017-05-23T02:17:50.391Z,85.84
2017-05-23T02:18:51.341Z,86.12
2017-05-23T02:19:52.037Z,86.03
2017-05-23T02:20:52.735Z,86.03
2017-05-23T02:21:53.437Z,86.22
2017-05-23T02:22:54.134Z,86.03
2017-05-23T02:23:55.033Z,86.41
2017-05-23T02:24:55.732Z,86.98
2017-05-23T02:25:56.434Z,86.79
2017-05-23T02:26:57.132Z,86.60
2017-05-23T02:27:57.831Z,86.69
2017-05-23T02:28:58.780Z,86.88
2017-05-23T02:29:59.479Z,86.69
2017-05-23T02:31:00.179Z,86.79
2017-05-23T02:32:00.878Z,86.69
2017-05-23T02:33:01.574Z,86.98
2017-05-23T02:34:02.528Z,87.17
2017-05-23T02:35:03.230Z,87.36
2017-05-23T02:36:03.933Z,87.07
2017-05-23T02:37:04.635Z,87.36
2017-05-23T02:38:05.335Z,87.17
2017-05-23T02:39:06.287Z,87.65
2017-05-23T02:40:06.984Z,87.36
2017-05-23T02:41:07.682Z,87.27
2017-05-23T02:42:08.381Z,87.07
2017-05-23T02:43:09.084Z,87.65
2017-05-23T02:44:10.037Z,87.17
2017-05-23T02:45:10.737Z,87.46
2017-05-23T02:46:11.435Z,87.93
2017-05-23T02:47:12.133Z,87.55
2017-05-23T02:48:12.833Z,87.55
2017-05-23T02:49:13.779Z,87.07
2017-05-23T02:50:14.478Z,87.46
2017-05-23T02:51:15.181Z,87.74
2017-05-23T02:52:15.884Z,87.93
2017-05-23T02:53:16.584Z,87.55
2017-05-23T02:54:17.534Z,87.55
2017-05-23T02:55:18.230Z,87.55
2017-05-23T02:56:18.930Z,87.27
2017-05-23T02:57:19.629Z,87.55
2017-05-23T02:58:20.323Z,87.74
2017-05-23T02:59:21.219Z,87.55
2017-05-23T03:00:21.920Z,87.55
2017-05-23T03:01:22.620Z,87.07
2017-05-23T03:02:23.318Z,87.46
2017-05-23T03:03:24.018Z,87.93
2017-05-23T03:04:24.969Z,87.74
2017-05-23T03:05:25.671Z,87.55
2017-05-23T03:06:26.370Z,87.17
2017-05-23T03:07:27.064Z,87.55
2017-05-23T03:08:27.762Z,87.17
2017-05-23T03:09:28.715Z,87.74
2017-05-23T03:10:29.414Z,87.74
2017-05-23T03:11:30.110Z,87.07
2017-05-23T03:12:30.808Z,88.03
2017-05-23T03:13:31.512Z,87.36
2017-05-23T03:14:32.464Z,87.07
2017-05-23T03:15:33.167Z,87.36
2017-05-23T03:16:33.865Z,87.74
2017-05-23T03:17:34.568Z,87.93
2017-05-23T03:18:35.271Z,87.55
2017-05-23T03:19:36.225Z,87.17
2017-05-23T03:20:36.924Z,87.74
2017-05-23T03:21:37.625Z,87.55
2017-05-23T03:22:38.324Z,87.55
2017-05-23T03:23:39.022Z,87.65
2017-05-23T03:24:39.975Z,87.55
2017-05-23T03:25:40.675Z,87.65
2017-05-23T03:26:41.376Z,88.03
2017-05-23T03:27:42.082Z,87.74
2017-05-23T03:28:42.783Z,87.55
2017-05-23T03:29:43.729Z,87.55
2017-05-23T03:30:44.424Z,87.84
2017-05-23T03:31:45.118Z,87.55
2017-05-23T03:32:45.820Z,87.65
2017-05-23T03:33:46.518Z,87.65
2017-05-23T03:34:47.469Z,87.74
2017-05-23T03:35:48.175Z,87.36
2017-05-23T03:36:48.875Z,87.65
2017-05-23T03:37:49.578Z,87.74
2017-05-23T03:38:50.279Z,87.55
2017-05-23T03:39:51.180Z,87.74
2017-05-23T03:40:51.879Z,87.36
2017-05-23T03:41:52.578Z,87.74
2017-05-23T03:42:53.286Z,88.31
2017-05-23T03:43:53.990Z,87.93
2017-05-23T03:44:54.941Z,88.12
2017-05-23T03:45:55.645Z,87.93
2017-05-23T03:46:56.402Z,87.84
2017-05-23T03:47:57.104Z,88.03
2017-05-23T03:48:57.806Z,87.74
2017-05-23T03:49:58.763Z,87.65
2017-05-23T03:50:59.462Z,87.84
2017-05-23T03:52:00.158Z,87.55
2017-05-23T03:53:00.858Z,88.12
2017-05-23T03:54:01.559Z,88.12
2017-05-23T03:55:02.459Z,87.74
2017-05-23T03:56:03.160Z,87.55
2017-05-23T03:57:03.861Z,87.65
2017-05-23T03:58:04.564Z,87.55
2017-05-23T03:59:05.265Z,87.55
2017-05-23T04:00:06.166Z,87.46
2017-05-23T04:01:06.871Z,87.27
2017-05-23T04:02:07.572Z,87.46
2017-05-23T04:03:08.275Z,87.55
2017-05-23T04:04:08.976Z,87.55
2017-05-23T04:05:09.927Z,87.55
2017-05-23T04:06:10.630Z,87.74
2017-05-23T04:07:11.332Z,87.74
2017-05-23T04:08:12.035Z,87.55
2017-05-23T04:09:12.735Z,87.55
2017-05-23T04:10:13.686Z,87.36
2017-05-23T04:11:14.387Z,87.93
2017-05-23T04:12:15.090Z,88.03
2017-05-23T04:13:15.793Z,88.12
2017-05-23T04:14:16.492Z,87.84
2017-05-23T04:15:17.395Z,87.93
2017-05-23T04:16:18.098Z,87.84
2017-05-23T04:17:18.796Z,87.93
2017-05-23T04:18:19.497Z,87.84
2017-05-23T04:19:20.199Z,87.55
2017-05-23T04:20:21.174Z,87.93
2017-05-23T04:21:21.875Z,88.03
2017-05-23T04:22:22.579Z,87.93
2017-05-23T04:23:23.281Z,87.93
2017-05-23T04:24:23.983Z,87.84
2017-05-23T04:25:24.892Z,88.41
2017-05-23T04:26:25.597Z,88.31
2017-05-23T04:27:26.296Z,87.93
2017-05-23T04:28:27.000Z,88.07
2017-05-23T04:29:27.701Z,88.03
2017-05-23T04:30:28.654Z,88.12
2017-05-23T04:31:29.354Z,87.79
2017-05-23T04:32:30.057Z,87.31
2017-05-23T04:33:30.760Z,87.79
2017-05-23T04:34:31.462Z,87.79
2017-05-23T04:35:32.416Z,87.79
2017-05-23T04:36:33.121Z,87.79
2017-05-23T04:37:33.827Z,87.12
2017-05-23T04:38:34.531Z,87.12
2017-05-23T04:39:35.234Z,87.12
2017-05-23T04:40:36.186Z,87.02
2017-05-23T04:41:36.890Z,86.83
2017-05-23T04:42:37.603Z,87.50
2017-05-23T04:43:38.307Z,86.93
2017-05-23T04:44:39.006Z,87.12
2017-05-23T04:45:39.904Z,86.74
2017-05-23T04:46:40.609Z,86.74
2017-05-23T04:47:41.310Z,86.74
2017-05-23T04:48:42.017Z,86.83
2017-05-23T04:49:42.718Z,86.65
2017-05-23T04:50:43.672Z,86.83
2017-05-23T04:51:44.379Z,86.83
2017-05-23T04:52:45.077Z,86.74
2017-05-23T04:53:45.779Z,86.45
2017-05-23T04:54:46.488Z,86.69
2017-05-23T04:55:47.438Z,87.31
2017-05-23T04:56:48.141Z,87.45
2017-05-23T04:57:48.843Z,87.35
2017-05-23T04:58:49.544Z,87.26
2017-05-23T04:59:50.246Z,87.35
2017-05-23T05:00:51.155Z,87.26
2017-05-23T05:01:52.104Z,87.45
2017-05-23T05:02:52.810Z,87.26
2017-05-23T05:03:53.514Z,87.16
2017-05-23T05:04:54.218Z,87.16
2017-05-23T05:05:55.173Z,87.16
2017-05-23T05:06:55.890Z,87.35
2017-05-23T05:07:56.591Z,87.26
2017-05-23T05:08:57.293Z,87.35
2017-05-23T05:09:58.001Z,87.74
2017-05-23T05:10:58.957Z,87.64
2017-05-23T05:11:59.653Z,87.26
2017-05-23T05:13:00.351Z,87.35
2017-05-23T05:14:01.051Z,87.54
2017-05-23T05:15:01.755Z,86.88
2017-05-23T05:16:02.655Z,86.98
2017-05-23T05:17:03.355Z,86.82
2017-05-23T05:18:04.057Z,87.11
2017-05-23T05:19:04.758Z,86.54
2017-05-23T05:20:05.461Z,86.44
2017-05-23T05:21:06.416Z,86.35
2017-05-23T05:22:07.338Z,86.06
2017-05-23T05:23:08.048Z,85.58
2017-05-23T05:24:08.752Z,85.68
2017-05-23T05:25:09.453Z,85.49
2017-05-23T05:26:10.459Z,85.53
2017-05-23T05:27:11.169Z,85.15
2017-05-23T05:28:11.869Z,85.05
2017-05-23T05:29:12.572Z,84.29
2017-05-23T05:30:13.272Z,84.48
2017-05-23T05:31:14.225Z,84.58
2017-05-23T05:32:14.928Z,84.48
2017-05-23T05:33:15.633Z,84.20
2017-05-23T05:34:16.336Z,83.81
2017-05-23T05:35:17.042Z,83.86
2017-05-23T05:36:17.994Z,83.00
2017-05-23T05:37:18.696Z,83.38
2017-05-23T05:38:19.399Z,83.00
2017-05-23T05:39:20.103Z,82.52
2017-05-23T05:40:20.804Z,82.32
2017-05-23T05:41:21.707Z,82.42
2017-05-23T05:42:22.408Z,82.52
2017-05-23T05:43:23.112Z,81.60
2017-05-23T05:44:23.814Z,81.22
2017-05-23T05:45:24.519Z,80.74
2017-05-23T05:46:25.373Z,80.36
2017-05-23T05:47:26.116Z,80.46
2017-05-23T05:48:26.819Z,80.55
2017-05-23T05:49:27.520Z,80.02
2017-05-23T05:50:28.224Z,79.44
2017-05-23T05:51:29.177Z,78.87
2017-05-23T05:52:29.885Z,78.30
2017-05-23T05:53:30.596Z,78.20
2017-05-23T05:54:31.299Z,78.20
2017-05-23T05:55:32.000Z,77.53
2017-05-23T05:56:32.906Z,77.19
2017-05-23T05:57:33.607Z,77.48
2017-05-23T05:58:34.310Z,77.48
2017-05-23T05:59:35.011Z,76.90
2017-05-23T06:00:35.713Z,76.81
2017-05-23T06:01:36.616Z,77.19
2017-05-23T06:02:37.323Z,77.00
2017-05-23T06:03:38.027Z,77.09
2017-05-23T06:04:38.731Z,76.81
2017-05-23T06:05:39.438Z,77.28
2017-05-23T06:06:40.395Z,77.00
2017-05-23T06:07:41.101Z,77.09
2017-05-23T06:08:41.815Z,77.00
2017-05-23T06:09:42.520Z,76.81
2017-05-23T06:10:43.229Z,77.28
2017-05-23T06:11:44.184Z,76.81
2017-05-23T06:12:44.886Z,77.00
2017-05-23T06:13:45.593Z,76.81
2017-05-23T06:14:46.300Z,77.38
2017-05-23T06:15:47.008Z,76.81
2017-05-23T06:16:47.913Z,76.62
2017-05-23T06:17:48.619Z,77.48
2017-05-23T06:18:49.325Z,77.48
2017-05-23T06:19:50.032Z,77.19
2017-05-23T06:20:50.738Z,77.19
2017-05-23T06:21:51.697Z,76.81
2017-05-23T06:22:52.394Z,76.90
2017-05-23T06:23:53.096Z,77.28
2017-05-23T06:24:53.804Z,76.37
2017-05-23T06:25:54.514Z,75.98
2017-05-23T06:26:55.466Z,75.41
2017-05-23T06:27:56.172Z,74.93
2017-05-23T06:28:56.879Z,75.22
2017-05-23T06:29:57.583Z,74.65
2017-05-23T06:30:58.285Z,74.16
2017-05-23T06:31:59.240Z,74.07
2017-05-23T06:32:59.942Z,74.30
2017-05-23T06:34:00.651Z,73.34
2017-05-23T06:35:01.357Z,73.63
2017-05-23T06:36:02.063Z,73.54
2017-05-23T06:37:03.014Z,72.96
2017-05-23T06:38:03.719Z,73.05
2017-05-23T06:39:04.422Z,72.67
2017-05-23T06:40:05.127Z,73.72
2017-05-23T06:41:05.831Z,73.44
2017-05-23T06:42:06.788Z,73.72
2017-05-23T06:43:07.496Z,73.82
2017-05-23T06:44:08.204Z,73.24
2017-05-23T06:45:08.911Z,73.63
2017-05-23T06:46:09.613Z,73.72
2017-05-23T06:47:10.569Z,74.68
2017-05-23T06:48:11.275Z,74.87
2017-05-23T06:49:11.978Z,75.26
2017-05-23T06:50:12.688Z,74.77
2017-05-23T06:51:13.392Z,74.68
2017-05-23T06:52:14.348Z,74.68
2017-05-23T06:53:15.055Z,74.58
2017-05-23T06:54:15.759Z,74.77
2017-05-23T06:55:16.460Z,74.58
2017-05-23T06:56:17.165Z,74.77
2017-05-23T06:57:18.130Z,74.01
2017-05-23T06:58:18.834Z,73.05
2017-05-23T06:59:19.540Z,72.80
2017-05-23T07:00:20.253Z,74.33
2017-05-23T07:01:20.958Z,74.40
2017-05-23T07:02:21.912Z,75.45
2017-05-23T07:03:22.615Z,75.07
2017-05-23T07:04:23.326Z,75.10
2017-05-23T07:05:24.029Z,75.29
2017-05-23T07:06:24.739Z,75.26
2017-05-23T07:07:25.692Z,75.20
2017-05-23T07:08:26.398Z,75.01
2017-05-23T07:09:27.103Z,74.62
2017-05-23T07:10:27.805Z,74.72
2017-05-23T07:11:28.509Z,74.33
2017-05-23T07:12:29.469Z,73.95
2017-05-23T07:13:30.176Z,74.52
2017-05-23T07:14:30.818Z,73.95
2017-05-23T07:15:31.588Z,73.66
2017-05-23T07:16:32.293Z,73.19
2017-05-23T07:17:33.248Z,73.09
2017-05-23T07:18:33.959Z,72.90
2017-05-23T07:19:34.663Z,73.19
2017-05-23T07:20:35.373Z,72.17
2017-05-23T07:21:36.014Z,71.31
2017-05-23T07:22:37.030Z,71.21
2017-05-23T07:23:37.735Z,71.21
2017-05-23T07:24:38.438Z,71.98
2017-05-23T07:25:39.143Z,73.13
2017-05-23T07:26:39.849Z,72.84
2017-05-23T07:27:40.761Z,72.84
2017-05-23T07:28:41.470Z,72.45
2017-05-23T07:29:42.179Z,72.45
2017-05-23T07:30:42.884Z,71.98
2017-05-23T07:31:43.587Z,71.59
2017-05-23T07:32:44.539Z,72.07
2017-05-23T07:33:45.245Z,71.69
2017-05-23T07:34:45.949Z,72.64
2017-05-23T07:35:46.657Z,72.27
2017-05-23T07:36:47.363Z,72.07
2017-05-23T07:37:48.316Z,71.82
2017-05-23T07:38:49.023Z,72.20
2017-05-23T07:39:49.729Z,71.15
2017-05-23T07:40:50.435Z,71.05
2017-05-23T07:41:51.143Z,71.44
2017-05-23T07:42:52.094Z,71.92
2017-05-23T07:43:52.801Z,71.72
2017-05-23T07:44:53.509Z,72.24
2017-05-23T07:45:54.216Z,71.92
2017-05-23T07:46:54.942Z,71.66
2017-05-23T07:47:55.900Z,71.44
2017-05-23T07:48:56.610Z,71.57
2017-05-23T07:49:57.318Z,70.03
2017-05-23T07:50:58.026Z,68.88
2017-05-23T07:51:58.732Z,68.79
2017-05-23T07:52:59.693Z,68.40
2017-05-23T07:54:00.394Z,67.83
2017-05-23T07:55:01.097Z,67.54
2017-05-23T07:56:01.801Z,68.21
2017-05-23T07:57:02.505Z,68.02
2017-05-23T07:58:03.463Z,67.73
2017-05-23T07:59:04.171Z,67.29
2017-05-23T08:00:04.879Z,67.16
2017-05-23T08:01:05.597Z,65.94
2017-05-23T08:02:06.301Z,65.84
2017-05-23T08:03:07.208Z,65.56
2017-05-23T08:04:07.914Z,66.52
2017-05-23T08:05:08.617Z,67.19
2017-05-23T08:06:09.328Z,67.29
2017-05-23T08:07:10.034Z,66.80
2017-05-23T08:08:10.992Z,67.19
2017-05-23T08:09:11.701Z,66.23
2017-05-23T08:10:12.411Z,66.61
2017-05-23T08:11:13.123Z,66.03
2017-05-23T08:12:13.828Z,65.97
2017-05-23T08:13:14.733Z,64.69
2017-05-23T08:14:15.442Z,62.96
2017-05-23T08:15:16.151Z,62.90
2017-05-23T08:16:16.855Z,62.81
2017-05-23T08:17:17.559Z,63.09
2017-05-23T08:18:18.465Z,62.23
2017-05-23T08:19:19.174Z,62.61
2017-05-23T08:20:19.878Z,62.42
2017-05-23T08:21:20.590Z,62.23
2017-05-23T08:22:21.294Z,61.68
2017-05-23T08:23:22.203Z,58.96
2017-05-23T08:24:22.910Z,59.76
2017-05-23T08:25:23.622Z,60.21
2017-05-23T08:26:24.337Z,60.53
2017-05-23T08:27:25.045Z,61.40
2017-05-23T08:28:25.950Z,61.68
2017-05-23T08:29:26.666Z,61.30
2017-05-23T08:30:27.372Z,60.63
2017-05-23T08:31:28.080Z,60.72
2017-05-23T08:32:28.786Z,60.43
2017-05-23T08:33:29.491Z,60.43
2017-05-23T08:34:30.200Z,60.08
2017-05-23T08:35:30.908Z,60.85
2017-05-23T08:36:31.612Z,60.75
2017-05-23T08:37:32.319Z,60.46
2017-05-23T08:38:33.279Z,60.27
2017-05-23T08:39:33.987Z,60.66
2017-05-23T08:40:34.695Z,60.85
2017-05-23T08:41:35.402Z,61.07
2017-05-23T08:42:36.109Z,60.69
2017-05-23T08:43:37.017Z,60.01
2017-05-23T08:44:37.722Z,59.82
2017-05-23T08:45:38.429Z,59.44
2017-05-23T08:46:39.130Z,59.44
2017-05-23T08:47:39.837Z,59.05
2017-05-23T08:48:40.844Z,58.57
2017-05-23T08:49:41.553Z,58.95
2017-05-23T08:50:42.257Z,60.69
2017-05-23T08:51:42.964Z,60.30
2017-05-23T08:52:43.674Z,60.11
2017-05-23T08:53:44.635Z,60.78
2017-05-23T08:54:45.344Z,60.39
2017-05-23T08:55:46.047Z,59.82
2017-05-23T08:56:46.748Z,60.69
2017-05-23T08:57:47.451Z,60.59
2017-05-23T08:58:48.423Z,60.49
2017-05-23T08:59:49.137Z,60.91
2017-05-23T09:00:49.847Z,60.91
2017-05-23T09:01:50.560Z,59.66
2017-05-23T09:02:51.273Z,58.89
2017-05-23T09:03:52.183Z,58.40
2017-05-23T09:04:52.897Z,58.72
2017-05-23T09:05:53.601Z,58.22
2017-05-23T09:06:54.311Z,58.12
2017-05-23T09:07:55.020Z,58.89
2017-05-23T09:08:55.983Z,57.76
2017-05-23T09:09:56.698Z,57.76
2017-05-23T09:10:57.405Z,58.44
2017-05-23T09:11:58.108Z,58.05
2017-05-23T09:12:58.813Z,58.82
2017-05-23T09:13:59.775Z,57.89
2017-05-23T09:15:00.491Z,56.15
2017-05-23T09:16:01.198Z,55.87
2017-05-23T09:17:01.905Z,55.96
2017-05-23T09:18:02.615Z,55.38
2017-05-23T09:19:03.536Z,55.87
2017-05-23T09:20:04.242Z,55.96
2017-05-23T09:21:04.950Z,56.82
2017-05-23T09:22:05.660Z,56.35
2017-05-23T09:23:06.368Z,55.87
2017-05-23T09:24:07.274Z,55.87
2017-05-23T09:25:07.982Z,56.35
2017-05-23T09:26:08.699Z,56.35
2017-05-23T09:27:09.406Z,56.15
2017-05-23T09:28:10.112Z,55.79
2017-05-23T09:29:11.020Z,55.89
2017-05-23T09:30:11.730Z,54.25
2017-05-23T09:31:12.437Z,55.02
2017-05-23T09:32:13.144Z,55.02
2017-05-23T09:33:13.850Z,54.64
2017-05-23T09:34:14.758Z,54.25
2017-05-23T09:35:15.470Z,54.93
2017-05-23T09:36:16.184Z,53.51
2017-05-23T09:37:16.894Z,53.03
2017-05-23T09:38:17.606Z,54.50
2017-05-23T09:39:18.518Z,54.02
2017-05-23T09:40:19.229Z,52.47
2017-05-23T09:41:19.940Z,52.21
2017-05-23T09:42:20.654Z,54.24
2017-05-23T09:43:21.364Z,54.33
2017-05-23T09:44:22.331Z,53.69
2017-05-23T09:45:23.048Z,51.46
2017-05-23T09:46:23.758Z,49.90
2017-05-23T09:47:24.464Z,50.09
2017-05-23T09:48:25.175Z,50.40
2017-05-23T09:49:26.079Z,49.70
2017-05-23T09:50:26.787Z,50.57
2017-05-23T09:51:27.499Z,50.67
2017-05-23T09:52:28.208Z,49.22
2017-05-23T09:53:28.915Z,51.15
2017-05-23T09:54:29.874Z,49.12
2017-05-23T09:55:30.587Z,49.51
2017-05-23T09:56:31.298Z,51.05
2017-05-23T09:57:32.034Z,50.35
2017-05-23T09:58:32.740Z,49.58
2017-05-23T09:59:33.702Z,49.51
2017-05-23T10:00:34.422Z,49.41
2017-05-23T10:01:35.131Z,49.32
2017-05-23T10:02:35.839Z,49.51
2017-05-23T10:03:36.552Z,49.92
2017-05-23T10:04:37.513Z,49.24
2017-05-23T10:05:38.226Z,49.22
2017-05-23T10:06:38.936Z,49.05
2017-05-23T10:07:39.640Z,48.95
2017-05-23T10:08:40.346Z,49.55
2017-05-23T10:09:41.308Z,49.27
2017-05-23T10:10:42.021Z,49.19
2017-05-23T10:11:42.728Z,48.13
2017-05-23T10:12:43.441Z,47.28
2017-05-23T10:13:44.152Z,47.19
2017-05-23T10:14:45.122Z,47.86
2017-05-23T10:15:45.834Z,45.76
2017-05-23T10:16:46.548Z,45.95
2017-05-23T10:17:47.258Z,44.89
2017-05-23T10:18:47.970Z,43.34
2017-05-23T10:19:48.926Z,42.37
2017-05-23T10:20:49.633Z,41.79
2017-05-23T10:21:50.344Z,41.70
2017-05-23T10:22:51.053Z,40.05
2017-05-23T10:23:51.768Z,39.76
2017-05-23T10:24:52.728Z,40.53
2017-05-23T10:25:53.441Z,40.63
2017-05-23T10:26:54.157Z,41.89
2017-05-23T10:27:54.870Z,42.57
2017-05-23T10:28:55.580Z,40.65
2017-05-23T10:29:56.490Z,38.71
2017-05-23T10:30:57.201Z,39.29
2017-05-23T10:31:57.914Z,38.81
2017-05-23T10:32:58.624Z,40.63
2017-05-23T10:33:59.331Z,39.57
2017-05-23T10:35:00.292Z,42.28
2017-05-23T10:36:01.010Z,39.86
2017-05-23T10:37:01.723Z,38.02
2017-05-23T10:38:02.435Z,38.70
2017-05-23T10:39:03.146Z,37.55
2017-05-23T10:40:04.109Z,38.25
2017-05-23T10:41:04.819Z,36.90
2017-05-23T10:42:05.529Z,35.44
2017-05-23T10:43:06.242Z,35.17
2017-05-23T10:44:06.949Z,36.52
2017-05-23T10:45:07.861Z,34.96
2017-05-23T10:46:08.569Z,35.07
2017-05-23T10:47:09.280Z,35.07
2017-05-23T10:48:10.002Z,33.42
2017-05-23T10:49:10.713Z,33.14
2017-05-23T10:50:11.672Z,33.72
2017-05-23T10:51:12.382Z,34.77
2017-05-23T10:52:13.092Z,34.28
2017-05-23T10:53:13.803Z,33.52
2017-05-23T10:54:14.516Z,33.92
2017-05-23T10:55:15.476Z,32.09
2017-05-23T10:56:16.187Z,31.02
2017-05-23T10:57:16.899Z,31.21
2017-05-23T10:58:17.612Z,31.79
2017-05-23T10:59:18.340Z,31.59
2017-05-23T11:00:19.250Z,31.29
2017-05-23T11:01:19.969Z,32.26
2017-05-23T11:02:20.677Z,32.56
2017-05-23T11:03:21.390Z,32.06
2017-05-23T11:04:22.109Z,31.96
2017-05-23T11:05:22.823Z,32.44
2017-05-23T11:06:23.538Z,32.17
2017-05-23T11:07:24.247Z,31.99
2017-05-23T11:08:24.960Z,31.89
2017-05-23T11:09:25.672Z,32.47
2017-05-23T11:10:26.593Z,32.47
2017-05-23T11:11:27.314Z,31.52
2017-05-23T11:12:28.027Z,31.62
2017-05-23T11:13:28.733Z,30.34
2017-05-23T11:14:29.443Z,30.24
2017-05-23T11:15:30.408Z,31.12
2017-05-23T11:16:31.115Z,31.04
2017-05-23T11:17:31.826Z,31.71
2017-05-23T11:18:32.540Z,31.82
2017-05-23T11:19:33.250Z,29.79
2017-05-23T11:20:34.160Z,30.85
2017-05-23T11:21:34.881Z,30.08
2017-05-23T11:22:35.590Z,29.98
2017-05-23T11:23:36.298Z,30.37
2017-05-23T11:24:37.008Z,29.97
2017-05-23T11:25:37.971Z,29.69
2017-05-23T11:26:38.685Z,29.21
2017-05-23T11:27:39.399Z,29.60
2017-05-23T11:28:40.122Z,29.00
2017-05-23T11:29:40.838Z,29.10
2017-05-23T11:30:41.799Z,28.53
2017-05-23T11:31:42.511Z,29.30
2017-05-23T11:32:43.223Z,28.74
2017-05-23T11:33:43.938Z,27.97
2017-05-23T11:34:44.656Z,27.50
2017-05-23T11:35:45.623Z,27.42
2017-05-23T11:36:46.340Z,27.61
2017-05-23T11:37:47.052Z,25.76
2017-05-23T11:38:47.768Z,25.86
2017-05-23T11:39:48.477Z,26.44
2017-05-23T11:40:49.439Z,26.26
2017-05-23T11:41:50.166Z,24.89
2017-05-23T11:42:50.877Z,26.15
2017-05-23T11:43:51.601Z,25.76
2017-05-23T11:44:52.310Z,24.69
2017-05-23T11:45:53.226Z,25.18
2017-05-23T11:46:53.939Z,25.68
2017-05-23T11:47:54.649Z,24.71
2017-05-23T11:48:55.363Z,25.85
2017-05-23T11:49:56.074Z,25.85
2017-05-23T11:50:56.992Z,25.85
2017-05-23T11:51:57.750Z,25.84
2017-05-23T11:52:58.468Z,25.56
2017-05-23T11:53:59.189Z,24.98
2017-05-23T11:54:59.960Z,25.79
2017-05-23T11:56:00.930Z,24.63
2017-05-23T11:57:01.650Z,23.36
2017-05-23T11:58:02.362Z,24.55
2017-05-23T11:59:03.072Z,25.23
2017-05-23T12:00:03.782Z,24.74
2017-05-23T12:01:04.695Z,23.97
2017-05-23T12:02:05.409Z,23.19
2017-05-23T12:03:06.120Z,23.58
2017-05-23T12:04:06.846Z,23.19
2017-05-23T12:05:07.561Z,23.41
2017-05-23T12:06:08.524Z,22.64
2017-05-23T12:07:09.235Z,22.64
2017-05-23T12:08:09.951Z,21.39
2017-05-23T12:09:10.662Z,22.27
2017-05-23T12:10:11.373Z,22.46
2017-05-23T12:11:12.343Z,19.02
2017-05-23T12:12:13.064Z,19.21
2017-05-23T12:13:13.784Z,19.41
2017-05-23T12:14:14.502Z,19.68
2017-05-23T12:15:15.211Z,20.47
2017-05-23T12:16:16.177Z,21.57
2017-05-23T12:17:16.889Z,21.37
2017-05-23T12:18:17.609Z,21.66
2017-05-23T12:19:18.321Z,21.56
2017-05-23T12:20:19.038Z,21.15
2017-05-23T12:21:19.951Z,22.42
2017-05-23T12:22:20.681Z,21.85
2017-05-23T12:23:21.397Z,22.62
2017-05-23T12:24:22.107Z,23.32
2017-05-23T12:25:22.819Z,21.74
2017-05-23T12:26:23.733Z,20.77
2017-05-23T12:27:24.449Z,20.09
2017-05-23T12:28:25.170Z,20.00
2017-05-23T12:29:25.904Z,20.00
2017-05-23T12:30:26.619Z,20.47
2017-05-23T12:31:27.581Z,20.57
2017-05-23T12:32:28.294Z,20.09
2017-05-23T12:33:29.010Z,20.56
2017-05-23T12:34:29.726Z,21.82
2017-05-23T12:35:30.441Z,21.53
2017-05-23T12:36:31.411Z,22.02
2017-05-23T12:37:32.129Z,19.98
2017-05-23T12:38:32.845Z,19.87
2017-05-23T12:39:33.560Z,19.76
2017-05-23T12:40:34.277Z,19.58
2017-05-23T12:41:35.238Z,19.68
2017-05-23T12:42:35.950Z,19.68
2017-05-23T12:43:36.663Z,19.89
2017-05-23T12:44:37.383Z,19.21
2017-05-23T12:45:38.093Z,20.98
2017-05-23T12:46:39.056Z,19.71
2017-05-23T12:47:39.770Z,19.62
2017-05-23T12:48:40.498Z,19.34
2017-05-23T12:49:41.217Z,19.05
2017-05-23T12:50:41.927Z,17.68
2017-05-23T12:51:42.843Z,17.19
2017-05-23T12:52:43.565Z,16.99
2017-05-23T12:53:44.280Z,16.88
2017-05-23T12:54:44.992Z,17.93
2017-05-23T12:55:45.707Z,19.49
2017-05-23T12:56:46.720Z,19.40
2017-05-23T12:57:47.432Z,19.80
2017-05-23T12:58:48.148Z,19.82
2017-05-23T12:59:48.862Z,18.26
2017-05-23T13:00:49.574Z,19.15
2017-05-23T13:01:50.588Z,19.54